Time;durP1;ratioP1;P1;durP2;ratioP2;P2;SDS_P1;SDS_P2;PMS_P1;PMS_P2;Temp;Humidity;BMP_temperature;BMP_pressure;BME280_temperature;BME280_humidity;BME280_pressure;Samples;Min_cycle;Max_cycle;Signal;HPM_P1;HPM_P2
2021/10/06 00:01:49;;;;;;;;;3.00;0.75;;;;;13.06;58.75;101133.41;5074368;27;48331;-49
2021/10/06 00:04:15;;;;;;;;;2.50;2.00;;;;;13.04;59.10;101141.34;5089856;27;45359;-51
2021/10/06 00:06:40;;;;;;;;;2.50;1.00;;;;;13.02;59.27;101132.59;5094638;27;45278;-50
2021/10/06 00:09:06;;;;;;;;;2.00;2.00;;;;;13.00;58.90;101130.00;5096919;27;45679;-49
2021/10/06 00:11:32;;;;;;;;;4.75;2.00;;;;;13.03;59.00;101138.72;5092369;27;46163;-50
2021/10/06 00:13:58;;;;;;;;;1.75;1.75;;;;;13.01;58.99;101141.41;5089701;27;45429;-51
2021/10/06 00:16:23;;;;;;;;;5.75;1.50;;;;;12.99;58.97;101146.72;5094234;27;45222;-50
2021/10/06 00:18:49;;;;;;;;;4.75;2.25;;;;;13.01;59.33;101155.44;5096463;27;45252;-51
2021/10/06 00:21:14;;;;;;;;;1.00;0.00;;;;;12.97;59.21;101158.19;5092143;27;45466;-52
2021/10/06 00:23:40;;;;;;;;;7.00;0.25;;;;;12.96;59.11;101159.94;5103360;27;45363;-52
2021/10/06 00:26:06;;;;;;;;;6.25;1.00;;;;;12.97;59.03;101169.59;5103419;27;45469;-47
2021/10/06 00:28:32;;;;;;;;;1.50;1.00;;;;;12.97;59.41;101166.97;5089912;27;45457;-51
2021/10/06 00:30:58;;;;;;;;;3.25;1.00;;;;;12.95;59.13;101174.03;5102771;27;45273;-52
2021/10/06 00:33:28;;;;;;;;;1.25;1.25;;;;;12.94;59.21;101180.22;5089657;27;45210;-47
2021/10/06 00:35:55;;;;;;;;;2.00;0.75;;;;;12.94;59.52;101177.59;5095534;27;45228;-51
2021/10/06 00:38:22;;;;;;;;;2.00;1.00;;;;;12.95;59.37;101179.31;5088317;27;45343;-52
2021/10/06 00:40:48;;;;;;;;;2.00;2.00;;;;;12.94;59.30;101180.22;5095256;27;45930;-51
2021/10/06 00:43:13;;;;;;;;;1.00;0.75;;;;;12.94;59.38;101185.50;5077673;27;45354;-51
2021/10/06 00:45:39;;;;;;;;;2.25;1.25;;;;;12.96;59.03;101182.81;5090828;27;45343;-52
2021/10/06 00:48:04;;;;;;;;;2.00;2.00;;;;;12.91;59.15;101180.25;5088866;27;45473;-53
2021/10/06 00:50:29;;;;;;;;;2.25;1.00;;;;;12.95;59.30;101192.50;5095144;27;45300;-52
2021/10/06 00:52:55;;;;;;;;;3.00;1.00;;;;;12.92;59.42;101189.06;5078815;27;45323;-52
2021/10/06 00:55:20;;;;;;;;;2.50;1.00;;;;;12.93;59.12;101186.38;5094956;27;45349;-52
2021/10/06 00:57:46;;;;;;;;;0.50;0.50;;;;;12.92;59.47;101181.16;5097065;27;45215;-50
2021/10/06 01:00:12;;;;;;;;;1.00;1.00;;;;;12.90;59.19;101180.28;5094712;27;45285;-52
2021/10/06 01:02:37;;;;;;;;;1.00;1.00;;;;;12.89;59.52;101175.91;5077436;27;45479;-52
2021/10/06 01:05:05;;;;;;;;;2.00;1.00;;;;;12.90;59.36;101175.88;5090583;27;45425;-50
2021/10/06 01:07:33;;;;;;;;;1.50;1.50;;;;;12.90;59.65;101183.78;5088895;27;45332;-51
2021/10/06 01:10:01;;;;;;;;;1.00;1.00;;;;;12.90;59.57;101181.16;5093924;27;45307;-51
2021/10/06 01:12:26;;;;;;;;;2.50;1.25;;;;;12.89;59.42;101189.09;5095778;27;45223;-51
2021/10/06 01:14:52;;;;;;;;;3.00;2.00;;;;;12.89;59.59;101192.59;5072928;27;45256;-49
2021/10/06 01:17:17;;;;;;;;;3.00;2.00;;;;;12.90;59.85;101191.69;5088829;27;45259;-51
2021/10/06 01:19:43;;;;;;;;;2.75;2.75;;;;;12.87;59.67;101202.31;5084113;27;46986;-48
2021/10/06 01:22:08;;;;;;;;;3.50;2.00;;;;;12.85;59.78;101196.19;5102420;27;45162;-52
2021/10/06 01:24:34;;;;;;;;;3.75;2.25;;;;;12.84;59.75;101195.31;5095366;27;45165;-52
2021/10/06 01:26:59;;;;;;;;;1.50;1.00;;;;;12.83;59.76;101203.28;5095421;27;45345;-47
2021/10/06 01:29:26;;;;;;;;;1.00;1.00;;;;;12.82;59.93;101205.03;5070854;27;46990;-50
2021/10/06 01:31:52;;;;;;;;;4.00;0.50;;;;;12.79;59.85;101205.09;5083188;27;45471;-52
2021/10/06 01:34:19;;;;;;;;;3.00;1.25;;;;;12.81;59.94;101207.69;5089249;27;45327;-47
2021/10/06 01:36:51;;;;;;;;;3.00;2.00;;;;;12.81;59.77;101205.91;5099838;27;45529;-52
2021/10/06 01:39:18;;;;;;;;;1.75;1.50;;;;;12.78;59.91;101211.25;5090317;27;45343;-51
2021/10/06 01:41:46;;;;;;;;;1.75;1.75;;;;;12.76;59.55;101223.56;5088287;27;45324;-49
2021/10/06 01:44:14;;;;;;;;;1.00;1.00;;;;;12.74;59.76;101224.50;5092701;27;45233;-47
2021/10/06 01:46:40;;;;;;;;;1.00;1.00;;;;;12.73;59.80;101221.00;5094985;27;45617;-50
2021/10/06 01:49:06;;;;;;;;;4.75;1.50;;;;;12.74;59.93;101220.09;5073302;27;45908;-51
2021/10/06 01:51:32;;;;;;;;;3.50;2.00;;;;;12.71;59.89;101206.97;5052968;27;45339;-49
2021/10/06 01:53:58;;;;;;;;;0.50;0.50;;;;;12.68;59.97;101212.28;5083773;27;45421;-53
2021/10/06 01:56:23;;;;;;;;;2.00;1.00;;;;;12.68;59.65;101218.44;5069967;27;45420;-50
2021/10/06 01:58:49;;;;;;;;;2.50;0.75;;;;;12.69;59.85;101219.28;5101444;27;45479;-51
2021/10/06 02:01:16;;;;;;;;;1.00;1.00;;;;;12.70;59.94;101217.53;5083186;27;45331;-50
2021/10/06 02:03:42;;;;;;;;;3.00;1.00;;;;;12.68;59.79;101220.19;5091818;27;45208;-50
2021/10/06 02:06:08;;;;;;;;;1.25;1.00;;;;;12.67;60.34;101229.00;5076439;28;45640;-47
2021/10/06 02:08:34;;;;;;;;;1.50;1.50;;;;;12.67;59.97;101227.22;5091590;27;46330;-47
2021/10/06 02:10:59;;;;;;;;;1.00;1.00;;;;;12.63;59.92;101224.69;5079350;28;45350;-46
2021/10/06 02:13:25;;;;;;;;;1.75;0.00;;;;;12.65;59.86;101234.31;5091812;27;45297;-51
2021/10/06 02:15:50;;;;;;;;;3.50;1.00;;;;;12.65;60.14;101226.41;5087820;27;45478;-51
2021/10/06 02:18:16;;;;;;;;;1.00;1.00;;;;;12.67;59.99;101226.38;5090611;27;45965;-49
2021/10/06 02:20:41;;;;;;;;;4.00;1.50;;;;;12.65;60.02;101225.50;5096782;27;45462;-48
2021/10/06 02:23:06;;;;;;;;;2.25;1.00;;;;;12.65;59.82;101223.75;5101803;27;45295;-50
2021/10/06 02:25:32;;;;;;;;;3.25;0.25;;;;;12.67;60.30;101229.00;5087628;27;45343;-49
2021/10/06 02:27:57;;;;;;;;;1.00;1.00;;;;;12.67;60.19;101226.38;5101442;27;45307;-51
2021/10/06 02:30:23;;;;;;;;;2.25;1.25;;;;;12.67;60.18;101236.91;5089632;27;45324;-51
2021/10/06 02:32:48;;;;;;;;;4.00;2.00;;;;;12.66;59.98;101237.81;5082939;27;45382;-48
2021/10/06 02:35:14;;;;;;;;;5.75;1.75;;;;;12.65;60.16;101238.69;5074600;27;45270;-48
2021/10/06 02:37:40;;;;;;;;;3.00;1.75;;;;;12.66;60.14;101237.81;5092543;27;46312;-51
2021/10/06 02:40:09;;;;;;;;;3.75;1.00;;;;;12.64;60.10;101235.19;5094287;27;45305;-48
2021/10/06 02:42:35;;;;;;;;;3.00;2.50;;;;;12.61;60.22;101232.59;5090267;27;45405;-46
2021/10/06 02:45:00;;;;;;;;;4.25;2.00;;;;;12.63;60.01;101249.25;5087312;27;45249;-51
2021/10/06 02:47:26;;;;;;;;;3.25;1.50;;;;;12.64;59.98;101252.75;5091248;27;46011;-50
2021/10/06 02:49:51;;;;;;;;;0.25;0.25;;;;;12.61;59.94;101253.69;5094256;27;45248;-48
2021/10/06 02:52:17;;;;;;;;;4.00;2.00;;;;;12.58;59.99;101256.38;5090443;27;45330;-47
2021/10/06 02:54:42;;;;;;;;;4.75;2.50;;;;;12.57;60.10;101254.63;5087203;27;45347;-51
2021/10/06 02:57:08;;;;;;;;;4.00;2.75;;;;;12.55;60.17;101253.75;5093901;27;45453;-50
2021/10/06 02:59:35;;;;;;;;;4.00;2.00;;;;;12.55;60.07;101266.94;5098104;27;45462;-47
2021/10/06 03:02:00;;;;;;;;;1.25;1.25;;;;;12.54;60.12;101259.06;5089652;27;45346;-50
2021/10/06 03:04:26;;;;;;;;;1.00;1.00;;;;;12.54;60.27;101257.31;5087125;27;45426;-48
2021/10/06 03:06:51;;;;;;;;;2.00;2.00;;;;;12.51;60.07;101258.25;5091028;27;46298;-49
2021/10/06 03:09:17;;;;;;;;;1.75;1.00;;;;;12.51;60.37;101259.97;5094032;27;45215;-49
2021/10/06 03:11:43;;;;;;;;;3.00;1.00;;;;;12.52;60.48;101264.38;5072358;27;45309;-51
2021/10/06 03:14:08;;;;;;;;;3.00;1.25;;;;;12.49;60.36;101270.56;5086961;27;45592;-51
2021/10/06 03:16:34;;;;;;;;;1.25;1.00;;;;;12.50;60.29;101271.41;5100357;27;46037;-51
2021/10/06 03:18:59;;;;;;;;;2.50;0.25;;;;;12.47;60.42;101274.09;5097074;27;45369;-50
2021/10/06 03:21:25;;;;;;;;;1.50;0.00;;;;;12.46;60.26;101272.34;5090585;27;45424;-51
2021/10/06 03:23:50;;;;;;;;;1.25;1.25;;;;;12.44;60.55;101274.13;5099473;27;45313;-50
2021/10/06 03:26:15;;;;;;;;;2.00;1.00;;;;;12.45;60.32;101276.78;5088271;27;45507;-51
2021/10/06 03:28:41;;;;;;;;;1.25;1.00;;;;;12.42;60.45;101265.41;5086717;27;45449;-49
2021/10/06 03:31:07;;;;;;;;;3.75;1.00;;;;;12.43;60.17;101275.03;5100524;27;45356;-51
2021/10/06 03:33:32;;;;;;;;;1.00;1.00;;;;;12.44;60.17;101280.28;5086944;27;45252;-49
2021/10/06 03:35:57;;;;;;;;;0.25;0.25;;;;;12.45;60.37;101282.03;5099237;27;46017;-51
2021/10/06 03:38:23;;;;;;;;;2.50;2.00;;;;;12.46;60.26;101289.03;5093484;27;45323;-50
2021/10/06 03:40:48;;;;;;;;;2.75;1.75;;;;;12.46;60.42;101285.53;5100450;27;45287;-51
2021/10/06 03:43:14;;;;;;;;;2.00;2.00;;;;;12.45;60.41;101289.06;5086499;27;45482;-51
2021/10/06 03:45:39;;;;;;;;;3.50;2.00;;;;;12.43;60.33;101288.22;5092422;27;46117;-52
2021/10/06 03:48:05;;;;;;;;;5.50;0.50;;;;;12.42;60.45;101299.66;5075020;27;45219;-48
2021/10/06 03:50:31;;;;;;;;;2.50;1.50;;;;;12.42;60.38;101304.94;5087792;27;45370;-50
2021/10/06 03:52:56;;;;;;;;;3.50;1.00;;;;;12.42;60.42;101313.69;5086694;27;45386;-51
2021/10/06 03:55:22;;;;;;;;;2.25;2.00;;;;;12.42;60.39;101320.75;5092517;27;46950;-51
2021/10/06 03:57:47;;;;;;;;;0.75;0.00;;;;;12.41;60.50;101314.59;5093975;27;45268;-49
2021/10/06 04:00:13;;;;;;;;;2.00;1.00;;;;;12.42;60.45;101318.09;5092746;27;45643;-46
2021/10/06 04:02:38;;;;;;;;;1.00;1.00;;;;;12.43;60.66;101311.94;5093180;27;45238;-51
2021/10/06 04:05:05;;;;;;;;;5.25;2.00;;;;;12.42;60.29;101321.59;5068870;27;46010;-50
2021/10/06 04:07:30;;;;;;;;;2.00;2.00;;;;;12.40;60.32;101320.78;5086184;27;45566;-51
2021/10/06 04:09:56;;;;;;;;;3.75;2.00;;;;;12.43;60.35;101333.03;5092164;27;45319;-48
2021/10/06 04:12:21;;;;;;;;;0.75;0.00;;;;;12.42;60.44;101337.41;5093140;27;45329;-46
2021/10/06 04:14:46;;;;;;;;;3.25;2.00;;;;;12.42;60.30;101337.41;5090921;27;45360;-50
2021/10/06 04:17:12;;;;;;;;;5.00;2.00;;;;;12.39;60.44;101341.84;5089437;27;45434;-51
2021/10/06 04:19:37;;;;;;;;;3.00;3.00;;;;;12.39;60.44;101350.66;5084755;27;45513;-51
2021/10/06 04:22:03;;;;;;;;;3.50;1.75;;;;;12.35;60.47;101336.63;5103379;27;45437;-50
2021/10/06 04:24:28;;;;;;;;;2.75;2.00;;;;;12.38;60.54;101346.25;5096637;27;45401;-49
2021/10/06 04:26:53;;;;;;;;;2.00;2.00;;;;;12.35;60.30;101341.91;5096318;27;45326;-49
2021/10/06 04:29:19;;;;;;;;;18.75;17.25;;;;;12.34;60.61;101337.50;5089718;27;45308;-50
2021/10/06 04:31:44;;;;;;;;;7.75;5.00;;;;;12.35;60.52;101347.16;5102902;27;45160;-50
2021/10/06 04:34:09;;;;;;;;;3.50;2.75;;;;;12.35;60.32;101351.56;5089702;27;45309;-51
2021/10/06 04:36:35;;;;;;;;;3.00;2.50;;;;;12.35;61.12;101343.66;5084590;27;45292;-47
2021/10/06 04:39:00;;;;;;;;;2.50;2.00;;;;;12.34;60.67;101344.56;5096330;27;45260;-51
2021/10/06 04:41:25;;;;;;;;;2.00;1.00;;;;;12.33;60.57;101341.03;5096310;27;45224;-50
2021/10/06 04:43:51;;;;;;;;;1.75;1.75;;;;;12.35;60.36;101349.81;5087836;27;46283;-49
2021/10/06 04:46:18;;;;;;;;;3.00;1.00;;;;;12.36;60.62;101348.03;5089225;27;45193;-48
2021/10/06 04:48:47;;;;;;;;;3.75;2.50;;;;;12.38;60.41;101345.38;5095766;27;45308;-50
2021/10/06 04:51:14;;;;;;;;;2.50;2.00;;;;;12.39;60.51;101350.66;5095628;27;45486;-49
2021/10/06 04:53:39;;;;;;;;;4.00;1.50;;;;;12.40;60.31;101340.97;5090285;27;46210;-49
2021/10/06 04:56:04;;;;;;;;;1.25;1.00;;;;;12.41;60.47;101342.72;5089136;27;45347;-47
2021/10/06 04:58:30;;;;;;;;;4.00;3.75;;;;;12.42;60.54;101355.00;5102662;27;45301;-51
2021/10/06 05:00:55;;;;;;;;;5.00;3.00;;;;;12.41;60.48;101366.44;5088760;27;45225;-50
2021/10/06 05:03:21;;;;;;;;;2.00;2.00;;;;;12.41;60.39;101367.28;5094614;27;46312;-49
2021/10/06 05:05:46;;;;;;;;;1.00;1.00;;;;;12.41;60.33;101369.06;5095853;27;45686;-48
2021/10/06 05:08:12;;;;;;;;;5.00;1.25;;;;;12.41;60.46;101358.53;5076741;27;45248;-52
2021/10/06 05:10:37;;;;;;;;;2.75;2.00;;;;;12.40;60.34;101364.69;5101349;27;45323;-49
2021/10/06 05:13:02;;;;;;;;;6.00;3.00;;;;;12.42;60.37;101373.47;5089960;27;45228;-52
2021/10/06 05:15:28;;;;;;;;;3.00;3.00;;;;;12.40;60.33;101368.22;5088750;27;45193;-51
2021/10/06 05:17:54;;;;;;;;;3.00;1.50;;;;;12.40;60.27;101375.22;5094693;27;45501;-51
2021/10/06 05:20:19;;;;;;;;;4.25;2.75;;;;;12.39;60.58;101381.38;5095430;27;45390;-51
2021/10/06 05:22:45;;;;;;;;;1.50;1.50;;;;;12.39;60.35;101384.03;5101581;27;46121;-50
2021/10/06 05:25:10;;;;;;;;;1.50;1.25;;;;;12.38;60.49;101392.81;5083316;27;45381;-51
2021/10/06 05:27:35;;;;;;;;;3.50;3.25;;;;;12.37;60.43;101404.28;5096566;27;45489;-51
2021/10/06 05:30:06;;;;;;;;;2.00;1.00;;;;;12.31;60.25;101398.19;5076160;27;45395;-52
2021/10/06 05:32:32;;;;;;;;;1.25;1.25;;;;;12.33;60.56;101403.44;5101855;27;46282;-51
2021/10/06 05:34:57;;;;;;;;;4.25;2.00;;;;;12.29;60.37;101405.22;5093337;27;45394;-50
2021/10/06 05:37:23;;;;;;;;;3.00;3.00;;;;;12.28;60.46;101403.47;5095928;27;45293;-52
2021/10/06 05:39:48;;;;;;;;;2.00;2.00;;;;;12.24;60.59;101403.50;5095170;27;45421;-48
2021/10/06 05:42:14;;;;;;;;;2.50;2.50;;;;;12.23;60.49;101410.56;5088101;27;45339;-52
2021/10/06 05:44:39;;;;;;;;;3.25;2.00;;;;;12.21;60.37;101417.59;5088918;27;45459;-48
2021/10/06 05:47:04;;;;;;;;;1.25;1.00;;;;;12.20;60.74;101421.13;5095170;27;45345;-51
2021/10/06 05:49:30;;;;;;;;;1.50;1.50;;;;;12.18;60.71;101431.66;5076432;27;45339;-53
2021/10/06 05:51:55;;;;;;;;;5.75;1.75;;;;;12.14;60.95;101423.84;5088189;27;46017;-46
2021/10/06 05:54:21;;;;;;;;;3.00;3.00;;;;;12.16;60.87;101427.31;5088586;27;45458;-50
2021/10/06 05:56:46;;;;;;;;;2.75;1.75;;;;;12.15;60.79;101426.44;5094948;27;45344;-49
2021/10/06 05:59:12;;;;;;;;;1.75;1.75;;;;;12.16;60.87;101424.66;5101328;27;45452;-52
2021/10/06 06:01:37;;;;;;;;;6.50;4.50;;;;;12.12;60.78;101430.88;5087542;27;46160;-49
2021/10/06 06:04:03;;;;;;;;;2.50;2.00;;;;;12.16;60.89;101436.09;5088349;27;45305;-51
2021/10/06 06:06:28;;;;;;;;;4.00;1.75;;;;;12.16;60.76;101448.38;5095108;27;45347;-49
2021/10/06 06:08:53;;;;;;;;;3.00;1.25;;;;;12.15;60.93;101452.78;5094667;27;45307;-49
2021/10/06 06:11:22;;;;;;;;;2.00;2.00;;;;;12.16;60.69;101446.63;5087776;27;46062;-51
2021/10/06 06:13:47;;;;;;;;;2.50;2.00;;;;;12.18;60.77;101438.72;5087794;27;45163;-49
2021/10/06 06:16:13;;;;;;;;;2.25;2.00;;;;;12.16;60.84;101446.63;5094613;27;45235;-51
2021/10/06 06:18:38;;;;;;;;;4.25;2.25;;;;;12.13;60.65;101443.16;5076711;27;45774;-51
2021/10/06 06:21:04;;;;;;;;;2.50;2.00;;;;;12.19;60.97;101451.88;5088136;27;45314;-51
2021/10/06 06:23:31;;;;;;;;;1.00;1.00;;;;;12.18;60.99;101455.38;5101483;27;45288;-49
2021/10/06 06:25:57;;;;;;;;;4.00;1.75;;;;;12.16;61.12;101461.56;5087705;27;45304;-49
2021/10/06 06:28:22;;;;;;;;;2.25;2.00;;;;;12.17;60.94;101460.69;5089008;27;45335;-52
2021/10/06 06:30:47;;;;;;;;;2.75;2.25;;;;;12.17;60.80;101466.81;5099263;27;45901;-49
2021/10/06 06:33:13;;;;;;;;;4.50;1.75;;;;;12.18;60.89;101470.34;5088936;27;45351;-49
2021/10/06 06:35:38;;;;;;;;;3.00;3.00;;;;;12.17;60.99;101469.44;5098652;27;45409;-49
2021/10/06 06:38:04;;;;;;;;;5.50;2.00;;;;;12.18;60.94;101476.47;5087414;27;45507;-49
2021/10/06 06:40:29;;;;;;;;;4.00;2.00;;;;;12.19;61.05;101469.44;5093612;27;46553;-52
2021/10/06 06:42:55;;;;;;;;;3.00;2.00;;;;;12.19;60.82;101472.94;5092474;27;45282;-46
2021/10/06 06:45:20;;;;;;;;;2.00;1.75;;;;;12.16;61.00;101480.00;5087427;27;45382;-50
2021/10/06 06:47:45;;;;;;;;;2.25;2.00;;;;;12.18;61.10;101488.78;5079156;28;45437;-53
2021/10/06 06:50:13;;;;;;;;;3.00;1.00;;;;;12.17;61.30;101492.28;5097851;27;45288;-49
2021/10/06 06:52:38;;;;;;;;;2.00;1.75;;;;;12.14;61.16;101476.53;5100934;27;45217;-46
2021/10/06 06:55:05;;;;;;;;;2.00;0.00;;;;;12.18;61.01;101491.41;5087142;27;45442;-49
2021/10/06 06:57:30;;;;;;;;;3.00;1.75;;;;;12.18;60.94;101492.28;5075617;27;45566;-49
2021/10/06 06:59:56;;;;;;;;;1.00;1.00;;;;;12.22;61.08;101495.75;5095858;27;46972;-47
2021/10/06 07:02:21;;;;;;;;;4.75;3.50;;;;;12.22;61.21;101501.03;5100024;27;45338;-49
2021/10/06 07:04:47;;;;;;;;;3.00;3.00;;;;;12.23;61.54;101500.16;5086154;27;45400;-50
2021/10/06 07:07:14;;;;;;;;;1.75;1.75;;;;;12.28;61.45;101500.13;5087961;27;45331;-50
2021/10/06 07:09:47;;;;;;;;;3.50;1.75;;;;;12.26;61.46;101508.00;5093463;27;46046;-49
2021/10/06 07:12:14;;;;;;;;;2.00;2.00;;;;;12.29;61.19;101513.28;5093732;27;45435;-47
2021/10/06 07:14:40;;;;;;;;;3.75;1.00;;;;;12.31;61.25;101516.78;5087393;27;45240;-48
2021/10/06 07:17:05;;;;;;;;;2.00;2.00;;;;;12.34;61.58;101518.50;5086957;27;45419;-49
2021/10/06 07:19:30;;;;;;;;;5.50;1.25;;;;;12.39;61.28;101521.06;5082187;27;48258;-50
2021/10/06 07:21:56;;;;;;;;;4.50;3.50;;;;;12.40;61.26;101526.38;5100432;27;45444;-49
2021/10/06 07:24:21;;;;;;;;;4.00;2.00;;;;;12.42;61.28;101521.06;5095015;27;45439;-49
2021/10/06 07:26:46;;;;;;;;;4.75;3.00;;;;;12.43;61.36;101528.09;5092480;27;45315;-51
2021/10/06 07:29:12;;;;;;;;;2.25;2.25;;;;;12.46;61.50;101536.81;5086528;27;46068;-52
2021/10/06 07:31:38;;;;;;;;;3.00;2.50;;;;;12.45;61.41;101536.84;5100198;27;45247;-50
2021/10/06 07:34:03;;;;;;;;;5.25;2.75;;;;;12.48;61.44;101532.41;5094768;27;45377;-51
2021/10/06 07:36:29;;;;;;;;;2.25;2.25;;;;;12.50;61.50;101532.41;5097165;27;45269;-52
2021/10/06 07:38:56;;;;;;;;;3.75;2.50;;;;;12.57;61.73;101535.88;5086591;27;46543;-54
2021/10/06 07:41:22;;;;;;;;;2.75;2.75;;;;;12.56;61.72;101524.44;5087637;27;45470;-54
2021/10/06 07:43:47;;;;;;;;;5.50;2.50;;;;;12.59;61.44;101521.78;5099117;27;45474;-52
2021/10/06 07:46:13;;;;;;;;;3.75;2.00;;;;;12.63;61.35;101528.75;5087279;27;45249;-48
2021/10/06 07:48:39;;;;;;;;;3.00;2.00;;;;;12.68;61.63;101523.44;5095116;27;46942;-51
2021/10/06 07:51:05;;;;;;;;;2.00;1.00;;;;;12.71;61.49;101531.31;5096754;27;45421;-49
2021/10/06 07:53:30;;;;;;;;;2.50;2.25;;;;;12.69;61.53;101519.91;5072249;27;45275;-52
2021/10/06 07:55:56;;;;;;;;;2.75;2.75;;;;;12.78;61.79;101533.00;5085536;27;45256;-46
2021/10/06 07:58:21;;;;;;;;;4.25;1.75;;;;;12.79;61.26;101531.22;5103155;27;46901;-49
2021/10/06 08:00:47;;;;;;;;;2.50;2.00;;;;;12.86;61.23;101538.19;5103432;27;45306;-47
2021/10/06 08:03:12;;;;;;;;;5.00;2.75;;;;;12.89;61.53;101540.78;5097523;27;45343;-48
2021/10/06 08:05:38;;;;;;;;;2.50;2.00;;;;;12.97;61.39;101548.63;5096332;27;45173;-50
2021/10/06 08:08:03;;;;;;;;;2.50;2.25;;;;;13.02;61.61;101554.72;5089771;27;45324;-49
2021/10/06 08:10:29;;;;;;;;;5.50;3.00;;;;;13.06;61.10;101551.16;5090557;27;45238;-48
2021/10/06 08:12:54;;;;;;;;;3.75;3.00;;;;;13.16;61.49;101559.84;5096673;27;45305;-50
2021/10/06 08:15:19;;;;;;;;;3.00;2.50;;;;;13.20;61.24;101558.91;5096268;27;45373;-49
2021/10/06 08:17:45;;;;;;;;;5.25;3.25;;;;;13.23;61.63;101558.00;5089169;27;45335;-51
2021/10/06 08:20:10;;;;;;;;;3.00;2.00;;;;;13.27;61.25;101563.22;5090291;27;45416;-49
2021/10/06 08:22:36;;;;;;;;;2.00;2.00;;;;;13.30;61.55;101554.41;5084086;27;45451;-50
2021/10/06 08:25:01;;;;;;;;;5.00;1.50;;;;;13.41;61.17;101568.38;5091911;27;45540;-48
2021/10/06 08:27:26;;;;;;;;;5.00;3.00;;;;;13.45;61.15;101562.13;5096253;27;45904;-50
2021/10/06 08:29:52;;;;;;;;;2.50;2.25;;;;;13.52;61.11;101565.59;5093765;27;45285;-51
2021/10/06 08:32:17;;;;;;;;;5.00;2.25;;;;;13.59;61.18;101569.03;5098384;27;45287;-47
2021/10/06 08:34:42;;;;;;;;;2.75;2.75;;;;;13.65;60.95;101567.16;5092487;27;45502;-49
2021/10/06 08:37:08;;;;;;;;;3.50;3.00;;;;;13.73;61.50;101561.75;5079388;28;46240;-47
2021/10/06 08:39:33;;;;;;;;;3.00;2.25;;;;;13.85;61.31;101571.28;5093950;27;45300;-49
2021/10/06 08:41:59;;;;;;;;;6.25;4.00;;;;;13.95;60.96;101572.03;5089125;27;45520;-52
2021/10/06 08:44:31;;;;;;;;;3.50;2.00;;;;;13.97;61.00;101565.84;5091677;27;45471;-47
2021/10/06 08:46:57;;;;;;;;;4.50;3.00;;;;;14.10;61.07;101584.13;5095825;27;46373;-58
2021/10/06 08:49:22;;;;;;;;;3.00;3.00;;;;;14.16;61.21;101573.44;5091623;27;47170;-49
2021/10/06 08:51:48;;;;;;;;;3.25;3.00;;;;;14.25;61.23;101570.69;5091298;27;45293;-49
2021/10/06 08:54:14;;;;;;;;;4.00;3.00;;;;;14.37;60.62;101572.22;5098037;27;45644;-49
2021/10/06 08:56:40;;;;;;;;;1.25;1.25;;;;;14.43;60.88;101574.78;5093335;27;46355;-49
2021/10/06 08:59:05;;;;;;;;;5.75;4.25;;;;;14.55;60.62;101576.34;5100910;27;45258;-53
2021/10/06 09:01:31;;;;;;;;;1.75;0.50;;;;;14.65;60.11;101582.34;5101943;27;45314;-48
2021/10/06 09:03:59;;;;;;;;;2.75;1.00;;;;;14.73;60.37;101580.47;5102447;27;45196;-54
2021/10/06 09:06:32;;;;;;;;;2.00;2.00;;;;;14.82;59.86;101587.34;5100445;27;45224;-53
2021/10/06 09:08:58;;;;;;;;;6.50;2.00;;;;;14.91;60.30;101588.97;5102203;27;45160;-53
2021/10/06 09:11:32;;;;;;;;;5.00;2.00;;;;;14.94;60.40;101587.13;5100941;27;45512;-55
2021/10/06 09:14:02;;;;;;;;;2.00;0.75;;;;;15.06;59.70;101593.09;5100894;27;45394;-57
2021/10/06 09:16:27;;;;;;;;;5.00;3.00;;;;;15.15;59.74;101595.56;5100139;27;46189;-48
2021/10/06 09:18:52;;;;;;;;;1.00;1.00;;;;;15.24;59.65;101597.13;5101391;27;45383;-58
2021/10/06 09:21:18;;;;;;;;;1.25;1.25;;;;;15.31;59.53;101596.13;5100110;27;45468;-58
2021/10/06 09:23:43;;;;;;;;;2.00;1.75;;;;;15.41;59.60;101595.03;5095868;27;45329;-59
2021/10/06 09:26:12;;;;;;;;;1.25;1.25;;;;;15.51;59.02;101611.59;5102079;27;46792;-58
2021/10/06 09:28:41;;;;;;;;;1.75;1.75;;;;;15.55;59.42;101600.03;5099939;27;46307;-59
2021/10/06 09:31:26;;;;;;;;;3.50;0.75;;;;;15.70;59.21;101612.06;5096099;27;45346;-54
2021/10/06 09:33:57;;;;;;;;;2.25;1.75;;;;;15.74;58.83;101597.00;5101444;27;45388;-50
2021/10/06 09:36:34;;;;;;;;;2.25;2.25;;;;;15.84;59.27;101611.81;5096227;27;47470;-52
2021/10/06 09:39:03;;;;;;;;;4.00;2.25;;;;;15.92;59.10;101611.63;5096274;27;45716;-50
2021/10/06 09:41:46;;;;;;;;;1.00;1.00;;;;;15.99;58.67;101605.28;5101732;27;45441;-46
2021/10/06 09:44:16;;;;;;;;;4.00;1.75;;;;;16.07;58.79;101613.06;5094904;27;45466;-50
2021/10/06 09:47:01;;;;;;;;;3.75;1.75;;;;;16.18;58.51;101613.66;5098524;27;46275;-49
2021/10/06 09:49:34;;;;;;;;;3.00;1.25;;;;;16.27;58.72;101607.28;5099163;27;45426;-52
2021/10/06 09:52:28;;;;;;;;;5.75;3.75;;;;;16.37;58.19;101607.94;5099421;27;45400;-52
2021/10/06 09:54:53;;;;;;;;;4.00;2.00;;;;;16.48;58.21;101616.50;5088047;27;45307;-47
2021/10/06 09:57:23;;;;;;;;;2.25;1.25;;;;;16.55;57.94;101612.78;5083227;27;47181;-47
2021/10/06 09:59:50;;;;;;;;;2.25;2.00;;;;;16.65;57.83;101615.19;5101518;27;45552;-50
2021/10/06 10:02:16;;;;;;;;;4.25;3.25;;;;;16.78;57.38;101618.38;5101613;27;45378;-48
2021/10/06 10:04:41;;;;;;;;;1.50;1.00;;;;;16.85;57.46;101622.63;5101149;27;45298;-50
2021/10/06 10:07:07;;;;;;;;;3.50;2.00;;;;;16.93;57.45;101625.09;5101646;27;45349;-50
2021/10/06 10:09:32;;;;;;;;;1.75;0.25;;;;;16.99;56.95;101633.81;5101253;27;45369;-47
2021/10/06 10:11:58;;;;;;;;;2.25;2.00;;;;;17.01;56.84;101626.66;5101653;27;45252;-47
2021/10/06 10:14:24;;;;;;;;;1.25;1.25;;;;;17.06;56.52;101630.03;5101345;27;45543;-49
2021/10/06 10:16:50;;;;;;;;;2.00;1.75;;;;;17.12;56.70;101634.34;5101212;27;46192;-51
2021/10/06 10:19:15;;;;;;;;;1.25;1.25;;;;;17.18;56.67;101638.59;5079318;28;45921;-48
2021/10/06 10:21:45;;;;;;;;;3.00;0.25;;;;;17.26;56.84;101635.72;5082682;27;45231;-49
2021/10/06 10:24:20;;;;;;;;;1.50;1.50;;;;;17.34;56.35;101641.69;5098535;27;45353;-47
2021/10/06 10:26:59;;;;;;;;;2.75;2.00;;;;;17.41;56.61;101637.97;5098528;27;47511;-49
2021/10/06 10:29:41;;;;;;;;;5.00;1.00;;;;;17.50;56.42;101632.38;5101356;27;45190;-48
2021/10/06 10:32:13;;;;;;;;;2.00;1.50;;;;;17.57;56.47;101645.47;5100937;27;45351;-52
2021/10/06 10:35:00;;;;;;;;;1.00;1.00;;;;;17.66;56.48;101647.84;5099427;27;45473;-50
2021/10/06 10:37:54;;;;;;;;;1.00;1.00;;;;;17.79;56.13;101645.72;5088682;27;45434;-51
2021/10/06 10:40:34;;;;;;;;;2.00;2.00;;;;;17.84;55.78;101647.31;5100817;27;45498;-51
2021/10/06 10:43:08;;;;;;;;;2.50;2.50;;;;;17.88;56.10;101648.09;5082371;27;45287;-54
2021/10/06 10:46:06;;;;;;;;;2.00;1.00;;;;;17.94;55.59;101641.75;5100814;27;45387;-52
2021/10/06 10:49:03;;;;;;;;;1.50;0.25;;;;;17.96;55.32;101639.91;5087530;27;45388;-52
2021/10/06 10:51:45;;;;;;;;;1.00;1.00;;;;;18.00;55.65;101641.56;5093851;27;45317;-53
2021/10/06 10:54:12;;;;;;;;;4.50;2.00;;;;;17.99;55.24;101632.72;5087101;27;45450;-50
2021/10/06 10:56:49;;;;;;;;;1.33;1.33;;;;;17.97;55.43;101631.03;5096239;27;45392;-47
2021/10/06 10:59:21;;;;;;;;;2.75;2.00;;;;;17.99;54.93;101642.50;5096513;27;46322;-44
2021/10/06 11:01:51;;;;;;;;;2.00;2.00;;;;;18.01;55.62;101628.22;5092953;27;45301;-49
2021/10/06 11:04:28;;;;;;;;;4.50;1.25;;;;;18.09;55.17;101625.31;5081246;27;45348;-46
2021/10/06 11:07:19;;;;;;;;;2.50;2.00;;;;;18.11;54.71;101620.84;5095573;27;45507;-49
2021/10/06 11:09:47;;;;;;;;;4.75;1.75;;;;;18.17;54.39;101631.25;5092782;27;45919;-48
2021/10/06 11:12:12;;;;;;;;;2.00;1.00;;;;;18.19;54.35;101621.44;5096640;27;45327;-51
2021/10/06 11:14:41;;;;;;;;;1.50;1.25;;;;;18.26;54.26;101615.94;5092708;27;45244;-47
2021/10/06 11:17:07;;;;;;;;;1.00;1.00;;;;;18.35;54.27;101623.59;5095657;27;45273;-50
2021/10/06 11:19:42;;;;;;;;;3.00;2.00;;;;;18.43;54.03;101618.91;5092397;27;46072;-45
2021/10/06 11:22:23;;;;;;;;;1.75;1.75;;;;;18.53;54.23;101627.44;5094337;27;45240;-47
2021/10/06 11:24:57;;;;;;;;;1.25;1.00;;;;;18.63;54.04;101626.22;5086608;27;45445;-50